Time;durP1;ratioP1;P1;durP2;ratioP2;P2;SDS_P1;SDS_P2;PMS_P1;PMS_P2;Temp;Humidity;BMP_temperature;BMP_pressure;BME280_temperature;BME280_humidity;BME280_pressure;Samples;Min_cycle;Max_cycle;Signal;HPM_P1;HPM_P2
2022/04/13 00:02:10;;;;;;;8.93;6.90;;;;;;;20.12;33.23;101192.80;1786941;80;21743;-56
2022/04/13 00:04:36;;;;;;;9.78;6.37;;;;;;;20.12;33.22;101195.56;1786980;80;20912;-56
2022/04/13 00:07:02;;;;;;;10.20;6.97;;;;;;;20.12;33.25;101191.42;1784695;80;20977;-56
2022/04/13 00:09:28;;;;;;;9.48;6.40;;;;;;;20.10;33.24;101190.37;1781035;80;20901;-56
2022/04/13 00:11:54;;;;;;;10.75;6.58;;;;;;;20.10;33.23;101187.61;1781277;80;20996;-56
2022/04/13 00:14:24;;;;;;;10.55;6.97;;;;;;;20.10;33.24;101190.92;1781140;80;21335;-56
2022/04/13 00:16:54;;;;;;;11.28;6.87;;;;;;;20.08;33.24;101192.04;1781418;80;21703;-56
2022/04/13 00:19:20;;;;;;;12.58;6.53;;;;;;;20.08;33.24;101196.19;1780650;80;20940;-56
2022/04/13 00:21:46;;;;;;;7.87;6.15;;;;;;;20.08;33.22;101188.45;1780699;80;21005;-56
2022/04/13 00:24:13;;;;;;;9.90;6.25;;;;;;;20.09;33.22;101194.25;1781178;80;20968;-56
2022/04/13 00:26:39;;;;;;;8.55;6.08;;;;;;;20.07;33.23;101204.20;1781263;79;21755;-56
2022/04/13 00:29:05;;;;;;;9.00;6.85;;;;;;;20.08;33.22;101200.88;1781512;80;21015;-56
2022/04/13 00:31:31;;;;;;;9.95;6.55;;;;;;;20.08;33.23;101200.88;1783687;80;20955;-56
2022/04/13 00:33:57;;;;;;;9.58;6.58;;;;;;;20.08;33.21;101209.17;1786675;80;20865;-56
2022/04/13 00:36:23;;;;;;;8.38;6.30;;;;;;;20.07;33.22;101205.59;1786789;80;20944;-56
2022/04/13 00:38:50;;;;;;;9.73;6.30;;;;;;;20.08;33.22;101202.27;1786826;80;21291;-56
2022/04/13 00:41:17;;;;;;;9.63;7.08;;;;;;;20.07;33.18;101204.80;1786620;78;21340;-59
2022/04/13 00:43:44;;;;;;;7.95;6.35;;;;;;;20.07;33.21;101206.97;1783806;80;20855;-59
2022/04/13 00:46:10;;;;;;;10.35;6.67;;;;;;;20.07;33.21;101206.17;1781199;80;20957;-58
2022/04/13 00:48:39;;;;;;;7.08;5.90;;;;;;;20.07;33.20;101200.66;1781446;79;20973;-58
2022/04/13 00:51:05;;;;;;;9.80;6.58;;;;;;;20.07;33.23;101200.66;1780936;80;21300;-58
2022/04/13 00:53:32;;;;;;;10.82;7.12;;;;;;;20.06;33.21;101197.06;1780689;80;21346;-59
2022/04/13 00:55:59;;;;;;;7.28;5.78;;;;;;;20.05;33.19;101194.04;1781488;80;20897;-58
2022/04/13 00:58:27;;;;;;;9.25;6.70;;;;;;;20.05;33.22;101185.75;1780920;80;21306;-58
2022/04/13 01:00:55;;;;;;;7.30;5.78;;;;;;;20.04;33.21;101192.95;1780684;80;20989;-59
2022/04/13 01:03:24;;;;;;;8.88;6.40;;;;;;;20.05;33.21;101190.45;1781864;78;21881;-58
2022/04/13 01:05:51;;;;;;;9.13;6.08;;;;;;;20.04;33.21;101192.39;1786901;80;21467;-58
2022/04/13 01:08:18;;;;;;;9.90;6.20;;;;;;;20.03;33.22;101196.27;1787375;79;20946;-59
2022/04/13 01:10:48;;;;;;;8.05;6.60;;;;;;;20.03;33.23;101192.13;1783622;80;20921;-58
2022/04/13 01:13:15;;;;;;;8.73;5.65;;;;;;;20.03;33.24;101195.45;1781455;80;21300;-59
2022/04/13 01:15:42;;;;;;;8.88;5.95;;;;;;;20.03;33.23;101192.69;1781349;80;21681;-59
2022/04/13 01:18:08;;;;;;;10.05;5.80;;;;;;;20.02;33.23;101194.66;1780930;79;21322;-58
2022/04/13 01:20:37;;;;;;;9.35;6.22;;;;;;;20.02;33.23;101187.75;1780486;80;20976;-58
2022/04/13 01:23:03;;;;;;;7.58;6.28;;;;;;;20.03;33.22;101191.30;1781472;80;21447;-59
2022/04/13 01:25:29;;;;;;;7.28;5.22;;;;;;;20.02;33.21;101191.89;1781147;80;20957;-59
2022/04/13 01:27:55;;;;;;;7.30;5.33;;;;;;;20.02;33.19;101185.55;1780945;80;21329;-58
2022/04/13 01:30:25;;;;;;;8.13;5.62;;;;;;;20.01;33.19;101185.28;1781677;79;21237;-59
2022/04/13 01:32:52;;;;;;;8.45;5.33;;;;;;;20.01;33.20;101183.91;1785297;80;21476;-59
2022/04/13 01:35:18;;;;;;;7.45;5.30;;;;;;;20.01;33.19;101182.52;1785264;80;21525;-59
2022/04/13 01:37:44;;;;;;;7.17;5.72;;;;;;;20.00;33.20;101189.98;1785316;80;20907;-58
2022/04/13 01:40:11;;;;;;;8.50;5.65;;;;;;;20.00;33.19;101192.75;1785274;80;20922;-59
2022/04/13 01:42:38;;;;;;;8.43;5.83;;;;;;;20.00;33.19;101191.37;1784561;80;20987;-59
2022/04/13 01:45:05;;;;;;;7.10;5.30;;;;;;;20.00;33.17;101196.89;1785681;80;20986;-59
2022/04/13 01:47:32;;;;;;;8.10;4.92;;;;;;;20.00;33.17;101194.13;1786340;80;20873;-59
2022/04/13 01:49:59;;;;;;;7.40;5.22;;;;;;;20.00;33.18;101198.83;1787011;80;21039;-59
2022/04/13 01:52:25;;;;;;;7.05;5.10;;;;;;;19.99;33.19;101205.47;1786965;80;21882;-58
2022/04/13 01:54:51;;;;;;;6.60;4.87;;;;;;;19.99;33.19;101207.67;1787069;80;20967;-59
2022/04/13 01:57:19;;;;;;;7.78;5.53;;;;;;;19.99;33.17;101210.99;1787182;80;20881;-59
2022/04/13 01:59:45;;;;;;;8.53;5.08;;;;;;;19.98;33.20;101211.58;1787037;80;20955;-59
2022/04/13 02:02:11;;;;;;;6.95;5.12;;;;;;;19.98;33.18;101214.90;1786715;80;21356;-59
2022/04/13 02:04:37;;;;;;;7.10;5.25;;;;;;;19.99;33.19;101217.89;1786843;80;21306;-58
2022/04/13 02:07:04;;;;;;;8.20;5.42;;;;;;;19.98;33.17;101219.86;1787272;80;21175;-59
2022/04/13 02:09:30;;;;;;;6.45;5.08;;;;;;;19.98;33.15;101221.25;1786863;80;21331;-59
2022/04/13 02:11:56;;;;;;;5.75;4.58;;;;;;;19.98;33.15;101221.25;1786652;80;20928;-58
2022/04/13 02:14:22;;;;;;;7.22;4.62;;;;;;;19.98;33.17;101216.28;1786824;80;20896;-59
2022/04/13 02:16:48;;;;;;;6.05;4.65;;;;;;;19.97;33.15;101222.36;1787254;80;21595;-59
2022/04/13 02:19:14;;;;;;;7.42;5.35;;;;;;;19.97;33.14;101216.02;1787070;80;21372;-59
2022/04/13 02:21:40;;;;;;;5.33;4.42;;;;;;;19.97;33.16;101220.16;1785589;80;21374;-59
2022/04/13 02:24:09;;;;;;;6.15;4.65;;;;;;;19.97;33.14;101211.31;1781354;79;20961;-59
2022/04/13 02:26:35;;;;;;;5.95;4.83;;;;;;;19.96;33.14;101217.95;1781453;80;20930;-59
2022/04/13 02:29:02;;;;;;;6.75;4.67;;;;;;;19.96;33.13;101220.72;1781519;80;20989;-59
2022/04/13 02:31:28;;;;;;;5.85;4.40;;;;;;;19.95;33.13;101217.69;1764945;79;21034;-59
2022/04/13 02:33:56;;;;;;;7.62;4.50;;;;;;;19.96;33.12;101214.37;1767038;80;20867;-59
2022/04/13 02:36:22;;;;;;;7.65;4.70;;;;;;;19.96;33.13;101217.13;1787399;80;20936;-59
2022/04/13 02:38:48;;;;;;;5.22;4.22;;;;;;;19.96;33.09;101214.37;1787137;80;20968;-58
2022/04/13 02:41:14;;;;;;;5.97;4.47;;;;;;;19.96;33.11;101214.37;1786668;80;21267;-59
2022/04/13 02:43:47;;;;;;;7.45;5.42;;;;;;;19.95;33.09;101214.10;1786829;79;21341;-59
2022/04/13 02:46:13;;;;;;;6.35;4.42;;;;;;;19.95;33.08;101214.10;1787363;80;20909;-58
2022/04/13 02:48:39;;;;;;;6.12;4.55;;;;;;;19.94;33.09;101213.28;1787220;80;20917;-58
2022/04/13 02:51:05;;;;;;;5.42;4.15;;;;;;;19.94;33.09;101215.25;1786982;80;21129;-59
2022/04/13 02:53:31;;;;;;;6.58;4.53;;;;;;;19.94;33.07;101217.42;1787179;80;21100;-59
2022/04/13 02:55:58;;;;;;;6.12;4.42;;;;;;;19.94;33.08;101216.63;1787011;80;21384;-58
2022/04/13 02:58:30;;;;;;;7.42;4.67;;;;;;;19.94;33.08;101220.19;1787151;80;20905;-58
2022/04/13 03:00:56;;;;;;;6.35;4.33;;;;;;;19.94;33.06;101223.53;1786857;80;21019;-58
2022/04/13 03:03:22;;;;;;;7.72;4.25;;;;;;;19.93;33.04;101224.09;1786673;79;20880;-58
2022/04/13 03:05:48;;;;;;;6.10;4.50;;;;;;;19.93;33.06;101228.23;1787496;80;21040;-58
2022/04/13 03:08:14;;;;;;;6.00;4.55;;;;;;;19.92;33.06;101230.73;1787104;80;20872;-58
2022/04/13 03:10:40;;;;;;;5.20;3.92;;;;;;;19.91;33.05;101229.08;1786989;80;21052;-57
2022/04/13 03:13:06;;;;;;;5.87;4.08;;;;;;;19.92;33.03;101234.88;1760511;80;21348;-57
2022/04/13 03:15:32;;;;;;;5.60;3.90;;;;;;;19.92;33.05;101232.67;1787300;80;20992;-58
2022/04/13 03:17:58;;;;;;;6.15;4.15;;;;;;;19.92;33.04;101239.57;1787037;80;21247;-58
2022/04/13 03:20:24;;;;;;;5.40;3.98;;;;;;;19.91;33.02;101239.30;1787418;80;20901;-58
2022/04/13 03:22:50;;;;;;;7.53;3.60;;;;;;;19.91;33.01;101244.27;1787336;80;21413;-58
2022/04/13 03:25:17;;;;;;;8.05;4.40;;;;;;;19.90;33.01;101241.24;1786982;80;21386;-58
2022/04/13 03:27:43;;;;;;;6.35;3.70;;;;;;;19.90;33.01;101240.45;1787545;80;21317;-58
2022/04/13 03:30:13;;;;;;;5.45;4.22;;;;;;;19.90;33.01;101241.83;1786707;80;21360;-58
2022/04/13 03:32:44;;;;;;;6.70;4.20;;;;;;;19.90;33.01;101250.12;1785341;80;20946;-58
2022/04/13 03:35:11;;;;;;;5.62;3.45;;;;;;;19.89;33.01;101252.05;1785930;80;20899;-58
2022/04/13 03:37:38;;;;;;;6.42;4.28;;;;;;;19.90;33.01;101249.53;1787221;80;21332;-58
2022/04/13 03:40:08;;;;;;;7.83;4.15;;;;;;;19.92;33.03;101250.62;1786939;80;20959;-58
2022/04/13 03:42:35;;;;;;;7.50;3.85;;;;;;;19.95;33.03;101252.77;1786724;79;21035;-58
2022/04/13 03:45:06;;;;;;;5.60;4.33;;;;;;;19.98;33.01;101263.23;1786971;79;21330;-58
2022/04/13 03:47:33;;;;;;;6.22;3.83;;;;;;;20.01;32.99;101257.09;1787342;80;20995;-58
2022/04/13 03:49:58;;;;;;;5.10;3.85;;;;;;;20.07;32.97;101260.04;1760785;80;20948;-58
2022/04/13 03:52:25;;;;;;;4.30;3.17;;;;;;;20.12;32.94;101264.06;1787274;80;20897;-58
2022/04/13 03:54:51;;;;;;;4.97;3.60;;;;;;;20.18;32.91;101269.77;1787291;80;21151;-58
2022/04/13 03:57:17;;;;;;;6.62;3.55;;;;;;;20.24;32.88;101271.30;1787256;80;20873;-58
2022/04/13 03:59:43;;;;;;;6.62;3.62;;;;;;;20.31;32.79;101275.10;1787250;80;21007;-58
2022/04/13 04:02:09;;;;;;;5.47;4.08;;;;;;;20.37;32.73;101280.77;1786306;79;20939;-57
2022/04/13 04:04:35;;;;;;;7.45;4.00;;;;;;;20.43;32.63;101283.16;1786827;80;21008;-58
2022/04/13 04:07:01;;;;;;;10.80;3.90;;;;;;;20.50;32.55;101284.95;1785807;80;21130;-57
2022/04/13 04:09:27;;;;;;;7.95;3.47;;;;;;;20.56;32.47;101288.45;1786405;80;21356;-58
2022/04/13 04:11:53;;;;;;;6.65;3.98;;;;;;;20.62;32.37;101295.53;1786174;80;21015;-58
2022/04/13 04:14:20;;;;;;;6.95;4.00;;;;;;;20.68;32.27;101303.14;1781054;80;21000;-58
2022/04/13 04:16:46;;;;;;;9.18;3.90;;;;;;;20.73;32.17;101307.20;1780657;80;21512;-58
2022/04/13 04:19:12;;;;;;;10.23;4.10;;;;;;;20.77;32.07;101300.75;1781267;80;20846;-57
2022/04/13 04:21:38;;;;;;;10.45;4.17;;;;;;;20.81;32.00;101304.53;1780595;80;21461;-57
2022/04/13 04:24:05;;;;;;;6.67;3.72;;;;;;;20.85;31.90;101300.59;1783818;78;21384;-58
2022/04/13 04:26:31;;;;;;;6.58;4.10;;;;;;;20.88;31.82;101300.78;1773970;78;20896;-58
2022/04/13 04:28:57;;;;;;;8.40;4.15;;;;;;;20.92;31.71;101300.42;1761349;78;21021;-58
2022/04/13 04:34:08;;;;;;;7.75;4.30;;;;;;;21.02;31.59;101308.27;1776747;80;21381;-58
2022/04/13 04:36:34;;;;;;;6.72;3.12;;;;;;;21.08;31.58;101305.66;1782987;80;20996;-59
2022/04/13 04:39:00;;;;;;;8.75;3.40;;;;;;;21.12;31.56;101311.69;1763944;79;21543;-58
2022/04/13 04:41:26;;;;;;;6.00;3.75;;;;;;;21.16;31.54;101314.09;1772876;79;20907;-57
2022/04/13 04:43:52;;;;;;;7.37;3.87;;;;;;;21.20;31.52;101323.97;1781641;78;21282;-58
2022/04/13 04:46:18;;;;;;;8.98;3.67;;;;;;;21.22;31.52;101328.61;1765605;78;21019;-58
2022/04/13 04:48:45;;;;;;;9.23;3.58;;;;;;;21.24;31.52;101322.22;1781803;78;21057;-60
2022/04/13 04:51:12;;;;;;;7.00;3.47;;;;;;;21.26;31.59;101326.30;1782831;78;20913;-58
2022/04/13 04:53:38;;;;;;;8.23;3.33;;;;;;;21.27;31.70;101329.34;1777090;78;21031;-59
2022/04/13 04:56:05;;;;;;;7.17;3.37;;;;;;;21.29;31.74;101329.04;1781419;80;21126;-59
2022/04/13 04:58:31;;;;;;;5.78;3.60;;;;;;;21.32;31.73;101332.56;1774692;78;21253;-59
2022/04/13 05:01:04;;;;;;;7.17;3.55;;;;;;;21.32;31.73;101326.46;1777847;80;20916;-63
2022/04/13 05:03:33;;;;;;;12.82;3.98;;;;;;;21.33;31.76;101332.27;1729959;80;21011;-63
2022/04/13 05:06:04;;;;;;;9.10;3.93;;;;;;;21.35;31.87;101344.39;1747567;80;21051;-62
2022/04/13 05:08:31;;;;;;;10.15;4.47;;;;;;;21.37;31.93;101339.38;1748561;80;22057;-59
2022/04/13 05:10:58;;;;;;;11.43;4.35;;;;;;;21.38;31.95;101350.15;1771975;80;22082;-63
2022/04/13 05:13:25;;;;;;;11.43;5.67;;;;;;;21.38;32.00;101346.00;1775835;78;21167;-62
2022/04/13 05:15:52;;;;;;;9.20;5.40;;;;;;;21.39;31.99;101353.14;1777834;78;21214;-62
2022/04/13 05:18:20;;;;;;;11.30;5.62;;;;;;;21.39;32.00;101353.14;1798848;78;21708;-61
2022/04/13 05:20:47;;;;;;;11.45;5.92;;;;;;;21.40;32.00;101358.13;1753679;78;21339;-62
2022/04/13 05:23:13;;;;;;;12.53;6.05;;;;;;;21.39;31.93;101353.14;1774480;78;21261;-63
2022/04/13 05:25:40;;;;;;;11.65;5.17;;;;;;;21.41;31.86;101354.23;1745176;79;20917;-62
2022/04/13 05:28:08;;;;;;;12.18;5.72;;;;;;;21.40;31.83;101347.88;1727020;80;22084;-62
2022/04/13 05:30:40;;;;;;;16.70;6.40;;;;;;;21.43;31.83;101349.78;1707673;78;21009;-63
2022/04/13 05:33:07;;;;;;;10.60;5.47;;;;;;;21.46;31.82;101353.30;1732783;81;22048;-63
2022/04/13 05:35:33;;;;;;;14.78;6.08;;;;;;;21.48;31.82;101355.19;1751551;81;20990;-62
2022/04/13 05:38:02;;;;;;;9.00;5.55;;;;;;;21.49;31.84;101347.14;1714866;83;21458;-61
2022/04/13 05:40:27;;;;;;;12.47;6.42;;;;;;;21.52;31.87;101348.72;1719622;81;21432;-62
2022/04/13 05:42:54;;;;;;;11.60;6.45;;;;;;;21.53;31.86;101346.20;1758541;81;21031;-61
2022/04/13 05:45:20;;;;;;;12.05;5.87;;;;;;;21.57;31.87;101353.33;1751643;80;21157;-61
2022/04/13 05:47:46;;;;;;;10.43;6.42;;;;;;;21.58;31.90;101350.81;1761571;80;20906;-61
2022/04/13 05:50:13;;;;;;;15.30;6.92;;;;;;;21.59;31.93;101353.28;1764603;79;21787;-61
2022/04/13 05:52:41;;;;;;;11.28;6.12;;;;;;;21.62;31.99;101354.60;1756070;79;20918;-63
2022/04/13 05:55:08;;;;;;;15.63;6.60;;;;;;;21.63;32.07;101363.17;1763130;80;21026;-62
2022/04/13 05:57:34;;;;;;;11.73;6.53;;;;;;;21.65;32.11;101359.51;1753258;79;21114;-62
2022/04/13 06:00:00;;;;;;;23.18;7.10;;;;;;;21.67;32.16;101359.47;1769099;80;20897;-63
2022/04/13 06:02:27;;;;;;;23.87;6.70;;;;;;;21.69;32.26;101368.27;1758291;80;21012;-63
2022/04/13 06:04:53;;;;;;;17.98;6.72;;;;;;;21.71;32.37;101359.09;1760094;80;20972;-63
2022/04/13 06:07:19;;;;;;;24.45;7.03;;;;;;;21.73;32.41;101362.36;1748097;80;21037;-63
2022/04/13 06:09:45;;;;;;;14.30;6.42;;;;;;;21.75;32.47;101360.67;1762226;80;22197;-64
2022/04/13 06:12:11;;;;;;;19.17;7.92;;;;;;;21.77;32.52;101370.86;1753846;80;21029;-64
2022/04/13 06:14:37;;;;;;;27.32;7.75;;;;;;;21.77;32.58;101370.30;1761834;80;22036;-65
2022/04/13 06:17:04;;;;;;;22.85;7.33;;;;;;;21.77;32.65;101369.47;1754796;80;20886;-63
2022/04/13 06:19:30;;;;;;;22.13;7.15;;;;;;;21.79;32.71;101372.20;1763212;80;20959;-64
2022/04/13 06:21:56;;;;;;;20.20;7.12;;;;;;;21.79;32.81;101373.59;1761003;80;21646;-65
2022/04/13 06:24:22;;;;;;;19.45;6.83;;;;;;;21.81;32.92;101375.47;1743296;80;20886;-65
2022/04/13 06:26:48;;;;;;;21.33;7.05;;;;;;;21.83;33.00;101371.83;1754216;80;20933;-65
2022/04/13 06:29:14;;;;;;;14.70;6.60;;;;;;;21.85;33.07;101366.78;1763537;80;21024;-64
2022/04/13 06:31:41;;;;;;;20.05;6.90;;;;;;;21.86;33.13;101360.12;1753593;80;21293;-64
2022/04/13 06:34:07;;;;;;;18.62;6.80;;;;;;;21.88;33.17;101356.48;1755483;79;22232;-64
2022/04/13 06:36:33;;;;;;;26.35;6.78;;;;;;;21.90;33.21;101360.30;1746958;79;20902;-65
2022/04/13 06:38:59;;;;;;;18.25;7.97;;;;;;;21.91;33.24;101361.95;1749057;80;21004;-62
2022/04/13 06:41:25;;;;;;;20.72;7.70;;;;;;;21.92;33.24;101362.24;1757846;79;21034;-63
2022/04/13 06:43:53;;;;;;;16.95;6.95;;;;;;;21.94;33.24;101359.96;1756579;81;21058;-64
2022/04/13 06:46:19;;;;;;;20.97;7.62;;;;;;;21.95;33.25;101358.02;1779108;78;21129;-64
2022/04/13 06:48:46;;;;;;;17.17;7.62;;;;;;;21.96;33.33;101366.02;1802507;78;20898;-62
2022/04/13 06:51:13;;;;;;;18.42;7.42;;;;;;;21.98;33.35;101365.13;1777357;78;21303;-62
2022/04/13 06:53:39;;;;;;;24.12;6.87;;;;;;;22.02;33.43;101363.95;1781934;78;20904;-61
2022/04/13 06:56:05;;;;;;;15.70;6.50;;;;;;;22.05;33.38;101363.33;1784011;78;21946;-64
2022/04/13 06:58:31;;;;;;;27.00;6.75;;;;;;;22.04;33.38;101365.27;1785450;78;21035;-64
2022/04/13 07:00:58;;;;;;;32.08;6.92;;;;;;;22.07;33.43;101373.51;1774499;78;20960;-61
2022/04/13 07:03:25;;;;;;;26.68;6.08;;;;;;;22.08;33.24;101369.61;1787443;78;20921;-62
2022/04/13 07:05:51;;;;;;;30.37;5.80;;;;;;;22.05;33.05;101358.61;1757801;80;20882;-63
2022/04/13 07:08:17;;;;;;;31.70;7.55;;;;;;;22.06;32.97;101360.25;1750950;80;20941;-63
2022/04/13 07:10:44;;;;;;;29.82;7.58;;;;;;;22.05;32.88;101364.70;1762296;79;21268;-62
2022/04/13 07:13:14;;;;;;;22.25;6.70;;;;;;;22.02;32.93;101368.94;1769361;79;21444;-62
2022/04/13 07:15:40;;;;;;;19.73;7.00;;;;;;;22.01;32.96;101371.45;1774115;79;20892;-63
2022/04/13 07:20:45;;;;;;;29.65;8.35;;;;;;;22.05;33.19;101371.64;1881101;76;22650;-61
2022/04/13 07:23:11;;;;;;;29.10;8.45;;;;;;;22.02;33.25;101366.17;1829391;76;20999;-63
2022/04/13 07:25:37;;;;;;;25.02;7.10;;;;;;;22.05;33.30;101364.70;1828984;76;21122;-62
2022/04/13 07:28:04;;;;;;;27.82;7.37;;;;;;;22.08;33.33;101368.23;1834238;77;20901;-64
2022/04/13 07:30:31;;;;;;;24.55;7.70;;;;;;;22.09;33.37;101365.72;1856958;77;20877;-62
2022/04/13 07:33:01;;;;;;;20.72;7.10;;;;;;;22.11;33.37;101366.20;1855580;77;20928;-62
2022/04/13 07:35:26;;;;;;;22.70;6.97;;;;;;;22.12;33.37;101370.06;1851491;77;20952;-61
2022/04/13 07:37:52;;;;;;;23.02;6.87;;;;;;;22.15;33.39;101365.86;1837428;77;21121;-61
2022/04/13 07:40:18;;;;;;;27.02;7.47;;;;;;;22.16;33.39;101366.91;1849680;76;21149;-62
2022/04/13 07:42:44;;;;;;;19.80;7.90;;;;;;;22.17;33.35;101358.86;1846370;75;20992;-63
2022/04/13 07:45:10;;;;;;;21.17;7.97;;;;;;;22.20;33.31;101361.55;1847926;77;21015;-62
2022/04/13 07:47:37;;;;;;;22.95;8.65;;;;;;;22.22;33.31;101363.45;1826864;77;21290;-61
2022/04/13 07:50:05;;;;;;;20.88;9.03;;;;;;;22.25;33.25;101360.05;1840853;75;22200;-61
2022/04/13 07:52:35;;;;;;;29.30;7.95;;;;;;;22.27;33.17;101361.95;1847889;77;20846;-60
2022/04/13 07:55:01;;;;;;;22.93;7.35;;;;;;;22.29;33.23;101366.59;1855168;75;21425;-62
2022/04/13 07:57:27;;;;;;;29.57;7.67;;;;;;;22.27;33.25;101353.63;1839042;77;21100;-61
2022/04/13 07:59:53;;;;;;;46.02;8.28;;;;;;;22.26;33.32;101344.50;1843601;75;21003;-61
2022/04/13 08:02:20;;;;;;;29.65;8.60;;;;;;;22.26;33.38;101348.66;1851239;76;21265;-61
2022/04/13 08:04:46;;;;;;;31.68;7.08;;;;;;;22.27;33.38;101342.55;1840246;75;21075;-60
2022/04/13 08:07:14;;;;;;;25.60;6.95;;;;;;;22.25;33.44;101342.85;1852793;75;20947;-62
2022/04/13 08:09:41;;;;;;;26.90;7.40;;;;;;;22.25;33.55;101346.19;1853138;75;22125;-61
2022/04/13 08:12:07;;;;;;;34.25;8.08;;;;;;;22.22;33.51;101336.56;1844159;75;20890;-61
2022/04/13 08:14:34;;;;;;;32.58;9.13;;;;;;;22.18;33.61;101338.33;1846412;75;21302;-61
2022/04/13 08:17:03;;;;;;;23.15;7.10;;;;;;;22.16;33.62;101338.37;1840944;77;20858;-62
2022/04/13 08:19:28;;;;;;;21.82;7.08;;;;;;;22.14;33.74;101333.73;1834569;75;21740;-61
2022/04/13 08:21:54;;;;;;;25.12;7.80;;;;;;;22.12;33.78;101347.06;1855778;76;20854;-61
2022/04/13 08:24:20;;;;;;;26.80;8.35;;;;;;;22.11;33.84;101344.86;1839360;76;20874;-62
2022/04/13 08:26:46;;;;;;;20.08;8.95;;;;;;;22.09;33.84;101341.60;1855681;77;21934;-62
2022/04/13 08:29:18;;;;;;;23.45;8.95;;;;;;;22.08;33.78;101341.34;1854886;77;21706;-62
2022/04/13 08:31:44;;;;;;;29.82;8.95;;;;;;;22.06;33.71;101342.80;1847489;76;20893;-61
2022/04/13 08:34:10;;;;;;;25.77;8.63;;;;;;;22.04;33.71;101332.59;1840729;75;20845;-61
2022/04/13 08:36:36;;;;;;;29.77;9.38;;;;;;;22.02;33.56;101339.02;1840900;75;21759;-61
2022/04/13 08:39:02;;;;;;;29.25;8.65;;;;;;;21.98;33.53;101336.62;1852438;75;21131;-62
2022/04/13 08:41:53;;;;;;;29.05;8.20;;;;;;;21.95;33.43;101328.36;1846144;77;21002;-60
2022/04/13 08:44:34;;;;;;;27.87;8.23;;;;;;;21.93;33.38;101333.98;1858360;75;20948;-61
2022/04/13 08:47:04;;;;;;;;;;;;;;;21.88;33.47;101333.50;1828943;75;21473;-60
2022/04/13 08:49:30;;;;;;;27.10;7.60;;;;;;;21.84;33.15;101321.41;1855078;75;20192;-60
2022/04/13 08:52:07;;;;;;;20.25;7.67;;;;;;;21.79;33.15;101327.06;1844950;75;21185;-60
2022/04/13 08:54:48;;;;;;;15.23;6.25;;;;;;;21.77;32.93;101323.77;1839969;76;20875;-59
2022/04/13 08:57:14;;;;;;;18.02;5.45;;;;;;;21.73;32.73;101318.05;1838407;75;21326;-59
2022/04/13 09:00:03;;;;;;;13.58;5.47;;;;;;;21.69;32.62;101312.88;1849241;75;20948;-60
2022/04/13 09:02:58;;;;;;;16.93;6.20;;;;;;;21.66;32.37;101312.13;1852151;75;20858;-60
2022/04/13 09:05:28;;;;;;;20.17;5.83;;;;;;;21.61;32.29;101305.32;1855586;75;21021;-60
2022/04/13 09:08:08;;;;;;;19.92;6.95;;;;;;;21.57;32.16;101299.33;1842841;75;20861;-60
2022/04/13 09:10:34;;;;;;;13.35;6.42;;;;;;;21.53;32.02;101300.53;1761918;78;21449;-60
2022/04/13 09:13:00;;;;;;;22.02;5.90;;;;;;;21.54;32.02;101296.64;1793210;78;20818;-61
2022/04/13 09:15:26;;;;;;;12.68;6.15;;;;;;;21.54;32.08;101286.12;1793325;78;20947;-61
2022/04/13 09:17:52;;;;;;;18.75;6.35;;;;;;;21.53;32.15;101279.77;1804460;78;22030;-60
2022/04/13 09:20:19;;;;;;;19.57;6.12;;;;;;;21.54;32.14;101279.20;1791273;79;20909;-60
2022/04/13 09:22:45;;;;;;;20.40;6.58;;;;;;;21.53;32.20;101280.33;1801327;78;20994;-59
2022/04/13 09:25:11;;;;;;;15.75;6.47;;;;;;;21.51;32.25;101276.50;1776410;78;21019;-60
2022/04/13 09:27:38;;;;;;;15.55;6.55;;;;;;;21.50;32.22;101271.27;1775410;78;21351;-60
2022/04/13 09:30:06;;;;;;;17.25;6.05;;;;;;;21.49;32.30;101261.31;1803008;77;20999;-61
2022/04/13 09:32:32;;;;;;;18.00;6.90;;;;;;;21.48;32.48;101265.21;1807820;78;20940;-60
2022/04/13 09:34:59;;;;;;;16.20;6.47;;;;;;;21.48;32.63;101263.27;1753051;78;21339;-60
2022/04/13 09:37:26;;;;;;;14.33;6.22;;;;;;;21.48;32.65;101258.29;1784584;80;20933;-59
2022/04/13 09:39:52;;;;;;;13.20;6.30;;;;;;;21.48;32.64;101256.34;1771544;79;21004;-59
2022/04/13 09:42:19;;;;;;;18.10;6.87;;;;;;;21.47;32.63;101257.50;1774783;79;21066;-59
2022/04/13 09:44:56;;;;;;;17.95;7.67;;;;;;;21.47;32.69;101254.73;1782180;78;21191;-58
2022/04/13 09:47:23;;;;;;;17.60;5.85;;;;;;;21.48;32.74;101253.58;1779221;79;21047;-58
2022/04/13 09:49:52;;;;;;;18.48;6.92;;;;;;;21.48;32.72;101254.14;1790044;79;22148;-60
2022/04/13 09:52:23;;;;;;;23.22;6.03;;;;;;;21.48;32.71;101259.67;1785974;79;21545;-59
2022/04/13 09:54:49;;;;;;;19.55;6.35;;;;;;;21.47;32.79;101251.14;1777987;78;21482;-59
2022/04/13 09:57:25;;;;;;;15.13;5.45;;;;;;;21.46;32.97;101251.70;1761802;79;21079;-58
2022/04/13 10:00:00;;;;;;;20.00;5.72;;;;;;;21.45;32.86;101258.36;1805688;77;21009;-59
2022/04/13 10:02:43;;;;;;;17.02;4.80;;;;;;;21.45;32.86;101247.28;1808448;78;22120;-59
2022/04/13 10:05:17;;;;;;;16.93;4.40;;;;;;;21.44;32.88;101245.64;1806349;78;21063;-58
2022/04/13 10:07:43;;;;;;;21.45;5.28;;;;;;;21.44;32.88;101245.64;1798096;78;21255;-58
2022/04/13 10:10:24;;;;;;;17.15;5.12;;;;;;;21.43;32.84;101241.83;1796231;78;21244;-60
2022/04/13 10:12:50;;;;;;;20.62;5.37;;;;;;;21.43;32.85;101239.84;1815016;78;20924;-58
2022/04/13 10:15:16;;;;;;;22.82;5.15;;;;;;;21.43;32.84;101244.00;1788560;78;20889;-58
2022/04/13 10:17:43;;;;;;;26.57;5.10;;;;;;;21.39;32.74;101238.27;1811172;78;20858;-58
2022/04/13 10:20:10;;;;;;;12.20;4.60;;;;;;;21.39;32.87;101240.22;1791665;78;21516;-58
2022/04/13 10:22:58;;;;;;;15.78;5.08;;;;;;;21.39;32.96;101240.22;1787364;78;21299;-60
2022/04/13 10:25:28;;;;;;;12.80;4.20;;;;;;;21.39;33.00;101247.14;1810386;78;21572;-58
2022/04/13 10:27:57;;;;;;;13.95;5.75;;;;;;;21.38;33.05;101239.98;1814519;78;21007;-59
2022/04/13 10:30:38;;;;;;;15.45;5.05;;;;;;;21.39;33.04;101238.84;1812087;78;20965;-59
2022/04/13 10:33:12;;;;;;;15.10;5.83;;;;;;;21.39;33.05;101241.60;1810999;78;21131;-59
2022/04/13 10:35:44;;;;;;;13.00;5.12;;;;;;;21.38;32.99;101232.51;1810129;78;21241;-58
2022/04/13 10:38:12;;;;;;;20.75;5.62;;;;;;;21.38;32.95;101234.45;1785199;79;21279;-59
2022/04/13 10:40:40;;;;;;;14.85;5.55;;;;;;;21.38;32.83;101235.84;1784128;79;20991;-58
2022/04/13 10:43:09;;;;;;;15.05;6.00;;;;;;;21.38;32.79;101226.15;1776961;80;21021;-59
2022/04/13 10:45:39;;;;;;;12.40;6.30;;;;;;;21.35;32.74;101230.34;1784540;79;21433;-58
2022/04/13 10:48:09;;;;;;;13.85;6.90;;;;;;;21.32;32.67;101216.31;1782390;79;20988;-60
2022/04/13 10:50:49;;;;;;;11.55;5.00;;;;;;;21.28;32.61;101224.44;1784834;78;21291;-59
2022/04/13 10:53:37;;;;;;;17.30;5.80;;;;;;;21.26;32.54;101225.89;1784396;78;21005;-60
2022/04/13 10:56:05;;;;;;;15.88;4.72;;;;;;;21.23;32.44;101227.88;1776865;79;21492;-59
2022/04/13 10:59:05;;;;;;;14.98;4.45;;;;;;;21.20;32.22;101217.44;1777633;80;21155;-59
2022/04/13 11:01:44;;;;;;;17.65;5.33;;;;;;;21.21;32.36;101214.92;1767302;80;21360;-58
2022/04/13 11:04:11;;;;;;;14.47;4.35;;;;;;;21.22;32.85;101215.16;1783769;78;21488;-58
2022/04/13 11:06:39;;;;;;;24.20;5.53;;;;;;;21.25;33.24;101211.79;1795939;78;21338;-57
2022/04/13 11:09:12;;;;;;;23.47;5.17;;;;;;;21.27;33.44;101217.81;1792115;79;21076;-58
2022/04/13 11:11:40;;;;;;;19.50;4.30;;;;;;;21.27;33.45;101211.72;1783686;79;21335;-58
2022/04/13 11:14:21;;;;;;;18.85;5.20;;;;;;;21.26;33.41;101192.08;1790900;79;22263;-60
2022/04/13 11:16:53;;;;;;;14.05;4.47;;;;;;;21.25;33.47;101209.02;1790822;78;21256;-60
2022/04/13 11:19:20;;;;;;;17.80;4.90;;;;;;;21.23;33.52;101201.02;1797290;78;20993;-59
2022/04/13 11:21:58;;;;;;;20.97;5.87;;;;;;;21.21;33.57;101201.91;1786723;79;21112;-59
2022/04/13 11:24:49;;;;;;;19.98;4.75;;;;;;;21.20;33.60;101189.20;1812241;78;21797;-59
2022/04/13 11:27:16;;;;;;;;;;;;;;;21.19;33.58;101184.79;1817704;78;22047;-60
2022/04/13 11:29:44;;;;;;;14.23;4.53;;;;;;;21.16;33.62;101188.19;1792164;79;20146;-59
2022/04/13 11:32:14;;;;;;;18.05;5.05;;;;;;;21.14;33.60;101186.28;1779633;78;21035;-59